Time;durP1;ratioP1;P1;durP2;ratioP2;P2;SDS_P1;SDS_P2;PMS_P1;PMS_P2;Temp;Humidity;BMP_temperature;BMP_pressure;BME280_temperature;BME280_humidity;BME280_pressure;Samples;Min_cycle;Max_cycle;Signal;HPM_P1;HPM_P2
2021/10/12 00:01:31;;;;;;;250.93;231.07;;;;;;;11.03;100.00;100939.53;4916564;29;20080;-79
2021/10/12 00:03:58;;;;;;;260.35;239.35;;;;;;;11.11;100.00;100929.50;4914414;29;20060;-81
2021/10/12 00:06:25;;;;;;;257.63;237.07;;;;;;;11.46;100.00;100919.44;4917558;29;20111;-79
2021/10/12 00:08:51;;;;;;;228.77;211.10;;;;;;;11.05;100.00;100916.22;4915641;29;20049;-79
2021/10/12 00:11:18;;;;;;;230.70;211.88;;;;;;;10.71;100.00;100908.22;4922980;29;20059;-78
2021/10/12 00:13:45;;;;;;;234.68;215.40;;;;;;;10.88;100.00;100902.50;4925426;29;20486;-79
2021/10/12 00:16:13;;;;;;;513.17;465.90;;;;;;;10.62;100.00;100906.78;4923324;29;20048;-78
2021/10/12 00:18:40;;;;;;;464.63;421.63;;;;;;;10.65;100.00;100903.72;4918275;29;20119;-79
2021/10/12 00:21:07;;;;;;;434.35;398.13;;;;;;;11.17;100.00;100893.31;4918644;29;20112;-79
2021/10/12 00:23:34;;;;;;;422.90;387.17;;;;;;;11.04;100.00;100888.81;4910001;29;20421;-78
2021/10/12 00:26:00;;;;;;;369.33;340.83;;;;;;;10.66;100.00;100894.72;4917671;29;20056;-78
2021/10/12 00:28:27;;;;;;;275.90;252.80;;;;;;;10.54;100.00;100894.47;4920523;29;20052;-79
2021/10/12 00:30:54;;;;;;;262.83;241.40;;;;;;;10.57;100.00;100903.06;4916996;29;20044;-79
2021/10/12 00:33:22;;;;;;;267.38;246.10;;;;;;;10.52;100.00;100893.84;4920445;29;20068;-79
2021/10/12 00:35:49;;;;;;;295.63;272.45;;;;;;;10.98;100.00;100894.94;4923305;29;20557;-78
2021/10/12 00:38:16;;;;;;;270.05;248.52;;;;;;;10.63;100.00;100889.00;4919073;29;20120;-79
2021/10/12 00:40:42;;;;;;;277.85;255.13;;;;;;;10.65;100.00;100889.59;4920042;29;20116;-79
2021/10/12 00:43:10;;;;;;;266.33;244.98;;;;;;;10.48;100.00;100887.31;4914451;29;20048;-78
2021/10/12 00:45:37;;;;;;;403.45;368.17;;;;;;;10.53;100.00;100890.19;4909068;29;20394;-78
2021/10/12 00:48:06;;;;;;;434.65;396.33;;;;;;;10.45;100.00;100898.34;4921015;29;20096;-78
2021/10/12 00:50:37;;;;;;;428.98;390.05;;;;;;;10.51;100.00;100892.22;4921697;29;20056;-79
2021/10/12 00:53:04;;;;;;;377.25;344.27;;;;;;;10.45;100.00;100885.06;4913689;29;20079;-79
2021/10/12 00:55:32;;;;;;;391.02;357.80;;;;;;;10.45;100.00;100876.28;4921454;29;20052;-78
2021/10/12 00:57:58;;;;;;;380.20;348.88;;;;;;;10.50;100.00;100879.16;4915099;29;20422;-79
2021/10/12 01:00:26;;;;;;;374.25;344.55;;;;;;;10.47;100.00;100875.06;4912446;29;20548;-79
2021/10/12 01:02:53;;;;;;;364.35;336.55;;;;;;;10.49;100.00;100882.81;4915750;29;20056;-80
2021/10/12 01:05:20;;;;;;;365.98;337.83;;;;;;;10.42;100.00;100879.34;4924727;29;20127;-78
2021/10/12 01:07:48;;;;;;;249.38;229.52;;;;;;;10.39;100.00;100885.88;4919359;29;20073;-79
2021/10/12 01:10:15;;;;;;;241.23;221.93;;;;;;;10.35;100.00;100881.16;4914458;29;20119;-80
2021/10/12 01:12:42;;;;;;;354.65;327.92;;;;;;;10.53;100.00;100879.56;4914822;29;20044;-80
2021/10/12 01:15:11;;;;;;;349.27;322.83;;;;;;;10.49;100.00;100875.66;4918122;29;20111;-79
2021/10/12 01:17:39;;;;;;;334.73;309.83;;;;;;;10.42;100.00;100872.19;4916419;29;20462;-79
2021/10/12 01:20:10;;;;;;;352.48;325.80;;;;;;;10.39;100.00;100871.78;4913244;29;20056;-81
2021/10/12 01:22:41;;;;;;;330.90;305.35;;;;;;;10.38;100.00;100867.47;4908790;29;20060;-81
2021/10/12 01:25:09;;;;;;;265.95;244.40;;;;;;;10.34;100.00;100871.56;4914599;29;20119;-81
2021/10/12 01:27:37;;;;;;;255.68;234.30;;;;;;;10.35;100.00;100867.88;4910377;29;20052;-80
2021/10/12 01:30:04;;;;;;;255.85;233.77;;;;;;;10.30;100.00;100860.53;4908451;29;20055;-78
2021/10/12 01:32:31;;;;;;;295.27;271.85;;;;;;;10.36;100.00;100854.41;4910577;29;20462;-78
2021/10/12 01:35:00;;;;;;;290.42;267.05;;;;;;;10.30;100.00;100856.03;4920959;29;20048;-79
2021/10/12 01:37:29;;;;;;;297.73;273.17;;;;;;;10.35;100.00;100863.41;4917713;29;20397;-78
2021/10/12 01:39:57;;;;;;;285.35;261.52;;;;;;;10.32;100.00;100869.94;4914624;29;20048;-78
2021/10/12 01:42:24;;;;;;;278.52;255.13;;;;;;;10.35;100.00;100858.09;4914889;29;20400;-79
2021/10/12 01:44:51;;;;;;;289.83;266.23;;;;;;;10.26;100.00;100856.59;4910785;29;20486;-80
2021/10/12 01:47:18;;;;;;;279.80;257.35;;;;;;;10.27;100.00;100852.97;4913034;29;20112;-79
2021/10/12 01:49:45;;;;;;;276.60;253.50;;;;;;;10.25;100.00;100847.81;4927180;29;20485;-78
2021/10/12 01:52:12;;;;;;;266.88;244.25;;;;;;;10.27;100.00;100845.81;4921296;29;20056;-78
2021/10/12 01:54:38;;;;;;;267.05;243.98;;;;;;;10.28;100.00;100852.75;4923336;29;20077;-77
2021/10/12 01:57:06;;;;;;;273.45;249.68;;;;;;;10.34;100.00;100847.66;4908369;29;20057;-78
2021/10/12 01:59:33;;;;;;;272.75;248.90;;;;;;;10.31;100.00;100840.91;4914963;29;20053;-78
2021/10/12 02:02:01;;;;;;;264.00;242.13;;;;;;;10.26;100.00;100838.88;5018954;23;20052;-79
2021/10/12 02:04:28;;;;;;;278.52;254.70;;;;;;;10.30;100.00;100845.41;4910178;29;20123;-79
2021/10/12 02:06:55;;;;;;;273.88;250.73;;;;;;;10.34;100.00;100843.16;4913188;29;20479;-77
2021/10/12 02:09:22;;;;;;;282.20;258.48;;;;;;;10.27;100.00;100837.03;4914910;29;20085;-80
2021/10/12 02:11:49;;;;;;;286.90;263.42;;;;;;;10.39;100.00;100829.28;4910233;29;20052;-80
2021/10/12 02:14:17;;;;;;;270.02;247.02;;;;;;;10.33;100.00;100825.59;4918138;29;20052;-81
2021/10/12 02:16:44;;;;;;;275.10;251.77;;;;;;;10.36;100.00;100824.38;4914739;29;20059;-78
2021/10/12 02:19:11;;;;;;;279.35;255.75;;;;;;;10.30;100.00;100815.38;4920667;29;20469;-80
2021/10/12 02:21:38;;;;;;;306.23;278.92;;;;;;;10.29;100.00;100798.66;4919381;29;20052;-78
2021/10/12 02:24:05;;;;;;;353.38;319.15;;;;;;;10.36;100.00;100803.16;4908879;29;20107;-80
2021/10/12 02:26:32;;;;;;;367.27;327.70;;;;;;;10.26;100.00;100806.19;4907975;29;20134;-80
2021/10/12 02:29:01;;;;;;;381.58;348.77;;;;;;;10.35;100.00;100793.53;4911383;29;20473;-80
2021/10/12 02:31:30;;;;;;;360.83;329.83;;;;;;;10.29;100.00;100800.50;4911168;29;20052;-79
2021/10/12 02:33:57;;;;;;;357.58;329.48;;;;;;;10.32;100.00;100800.09;4910737;29;20052;-80
2021/10/12 02:36:24;;;;;;;343.60;317.15;;;;;;;10.31;100.00;100801.09;4913219;29;20466;-83
2021/10/12 02:38:50;;;;;;;359.75;330.52;;;;;;;10.27;100.00;100810.47;4919268;29;20063;-80
2021/10/12 02:41:17;;;;;;;312.42;287.17;;;;;;;10.25;100.00;100801.84;4917713;29;20062;-79
2021/10/12 02:43:44;;;;;;;309.05;282.77;;;;;;;10.23;100.00;100806.56;4919805;29;20123;-80
2021/10/12 02:46:11;;;;;;;316.90;289.10;;;;;;;10.25;100.00;100807.97;4913526;29;20052;-79
2021/10/12 02:48:39;;;;;;;309.05;283.25;;;;;;;10.19;100.00;100807.97;4914176;29;20465;-79
2021/10/12 02:51:06;;;;;;;288.15;262.90;;;;;;;10.19;100.00;100800.81;4905972;29;20048;-79
2021/10/12 02:53:33;;;;;;;264.95;242.52;;;;;;;10.18;100.00;100801.84;4908471;29;20124;-79
2021/10/12 02:55:59;;;;;;;271.92;249.13;;;;;;;10.23;100.00;100804.72;4906389;29;20558;-79
2021/10/12 02:58:26;;;;;;;274.02;251.45;;;;;;;10.18;100.00;100811.66;4916099;29;20143;-80
2021/10/12 03:00:53;;;;;;;284.00;262.08;;;;;;;10.21;100.00;100806.75;4919675;29;20048;-80
2021/10/12 03:03:20;;;;;;;315.45;290.45;;;;;;;10.25;100.00;100802.69;4909928;29;20089;-79
2021/10/12 03:05:48;;;;;;;236.52;216.40;;;;;;;10.26;100.00;100799.06;4918216;29;20111;-79
2021/10/12 03:08:15;;;;;;;258.55;236.25;;;;;;;10.23;100.00;100798.63;4912109;29;20057;-79
2021/10/12 03:10:42;;;;;;;261.05;238.98;;;;;;;10.25;100.00;100785.94;4908246;29;20394;-80
2021/10/12 03:13:09;;;;;;;326.02;302.38;;;;;;;10.18;100.00;100782.47;4917358;29;20056;-81
2021/10/12 03:15:36;;;;;;;316.33;294.35;;;;;;;10.17;100.00;100780.84;4914126;29;20086;-80
2021/10/12 03:18:02;;;;;;;341.60;315.98;;;;;;;10.11;100.00;100776.34;4920852;29;20465;-81
2021/10/12 03:20:29;;;;;;;337.00;311.30;;;;;;;10.15;100.00;100782.88;4919127;29;20508;-79
2021/10/12 03:22:57;;;;;;;320.30;295.80;;;;;;;10.13;100.00;100782.25;4922493;29;20056;-79
2021/10/12 03:25:24;;;;;;;251.13;230.75;;;;;;;10.17;100.00;100780.84;4921876;29;20052;-80
2021/10/12 03:27:51;;;;;;;267.02;245.43;;;;;;;10.15;100.00;100781.03;4920443;29;20489;-79
2021/10/12 03:30:17;;;;;;;242.18;221.52;;;;;;;10.13;100.00;100782.25;4924023;29;20052;-79
2021/10/12 03:32:44;;;;;;;244.77;223.75;;;;;;;10.26;100.00;100769.00;4914690;29;20048;-80
2021/10/12 03:35:14;;;;;;;273.90;251.18;;;;;;;10.14;100.00;100754.69;4911829;29;20064;-80
2021/10/12 03:37:41;;;;;;;260.92;238.95;;;;;;;10.14;100.00;100744.09;4919589;29;20055;-79
2021/10/12 03:40:11;;;;;;;270.38;247.82;;;;;;;10.09;100.00;100742.03;4920656;29;20048;-81
2021/10/12 03:42:38;;;;;;;278.60;253.98;;;;;;;10.20;100.00;100737.97;4911752;29;20060;-79
2021/10/12 03:45:07;;;;;;;267.13;243.38;;;;;;;10.13;100.00;100742.44;4915361;29;20474;-81
2021/10/12 03:47:33;;;;;;;257.65;235.43;;;;;;;10.07;100.00;100736.09;4916796;29;20485;-80
2021/10/12 03:50:00;;;;;;;264.20;241.63;;;;;;;10.11;100.00;100741.84;4910204;29;20068;-81
2021/10/12 03:52:27;;;;;;;251.23;230.13;;;;;;;10.08;100.00;100733.25;4919385;29;20131;-81
2021/10/12 03:54:54;;;;;;;250.98;228.95;;;;;;;10.06;100.00;100745.88;4911347;29;20497;-78
2021/10/12 03:57:23;;;;;;;251.63;229.52;;;;;;;10.14;100.00;100752.03;4918947;29;20060;-79
2021/10/12 03:59:49;;;;;;;247.25;225.38;;;;;;;10.07;100.00;100747.50;4916965;29;20056;-80
2021/10/12 04:02:16;;;;;;;250.18;229.25;;;;;;;10.04;100.00;100757.72;4916706;29;20060;-78
2021/10/12 04:04:43;;;;;;;269.08;247.30;;;;;;;9.94;100.00;100755.47;4912973;29;20056;-79
2021/10/12 04:07:09;;;;;;;264.63;242.45;;;;;;;9.87;100.00;100765.25;4916743;29;20171;-80
2021/10/12 04:09:36;;;;;;;272.52;249.48;;;;;;;9.90;100.00;100764.03;4907834;29;20533;-78
2021/10/12 04:12:04;;;;;;;249.43;227.95;;;;;;;9.90;100.00;100764.84;4918707;29;20067;-79
2021/10/12 04:14:32;;;;;;;247.30;225.55;;;;;;;9.84;100.00;100755.03;4918153;29;20504;-78
2021/10/12 04:16:58;;;;;;;252.35;229.77;;;;;;;9.84;100.00;100758.50;4909398;29;20056;-78
2021/10/12 04:19:25;;;;;;;227.02;205.70;;;;;;;9.83;100.00;100764.00;4912176;29;20056;-78
2021/10/12 04:21:52;;;;;;;229.80;207.82;;;;;;;9.82;100.00;100762.38;4918254;29;20056;-78
2021/10/12 04:24:19;;;;;;;236.02;214.07;;;;;;;9.75;100.00;100761.53;4874327;28;20142;-79
2021/10/12 04:26:45;;;;;;;219.50;198.82;;;;;;;9.75;100.00;100765.00;4924225;29;20139;-80
2021/10/12 04:29:12;;;;;;;228.70;207.30;;;;;;;9.73;100.00;100769.69;4917840;29;20469;-79
2021/10/12 04:31:40;;;;;;;227.02;205.40;;;;;;;9.80;100.00;100767.03;4913791;29;20080;-81
2021/10/12 04:34:07;;;;;;;264.67;239.73;;;;;;;9.82;100.00;100759.72;4915137;29;20044;-79
2021/10/12 04:36:34;;;;;;;232.93;210.75;;;;;;;10.02;100.00;100757.94;4922587;28;20485;-80
2021/10/12 04:39:00;;;;;;;230.80;208.98;;;;;;;9.83;100.00;100750.72;4909631;29;20490;-78
2021/10/12 04:41:28;;;;;;;247.20;224.75;;;;;;;9.75;100.00;100746.44;4919299;28;20051;-80
2021/10/12 04:43:55;;;;;;;246.50;224.23;;;;;;;9.83;100.00;100756.03;4927790;29;20072;-79
2021/10/12 04:46:21;;;;;;;242.82;220.25;;;;;;;9.74;100.00;100752.78;4920773;29;20532;-78
2021/10/12 04:48:50;;;;;;;222.63;202.40;;;;;;;9.76;100.00;100748.06;4916382;29;20111;-79
2021/10/12 04:51:16;;;;;;;228.05;207.32;;;;;;;9.76;100.00;100755.22;4919327;29;20107;-78
2021/10/12 04:53:43;;;;;;;259.80;237.02;;;;;;;9.77;100.00;100748.88;4918817;29;20044;-79
2021/10/12 04:56:10;;;;;;;263.23;239.07;;;;;;;9.76;100.00;100755.22;4912202;29;20067;-78
2021/10/12 04:58:37;;;;;;;257.45;232.40;;;;;;;9.77;100.00;100749.72;4910416;29;20123;-79
2021/10/12 05:01:03;;;;;;;253.07;227.90;;;;;;;9.79;100.00;100755.63;4915549;29;20490;-80
2021/10/12 05:03:30;;;;;;;231.90;209.38;;;;;;;9.74;100.00;100749.28;4923215;29;20048;-79
2021/10/12 05:05:58;;;;;;;208.80;187.63;;;;;;;9.72;100.00;100748.69;4914253;29;20127;-79
2021/10/12 05:08:25;;;;;;;246.50;222.48;;;;;;;9.83;100.00;100743.63;4913863;29;20056;-78
2021/10/12 05:10:52;;;;;;;255.32;229.20;;;;;;;9.74;100.00;100743.97;4907472;29;20067;-81
2021/10/12 05:13:18;;;;;;;232.65;208.95;;;;;;;9.69;100.00;100733.97;4912190;29;20056;-82
2021/10/12 05:15:49;;;;;;;267.50;240.52;;;;;;;9.78;100.00;100743.38;4912390;29;20115;-79
2021/10/12 05:18:20;;;;;;;237.13;212.80;;;;;;;9.90;100.00;100746.28;4916023;29;20048;-79
2021/10/12 05:20:47;;;;;;;281.80;255.38;;;;;;;12.56;100.00;100741.03;4915205;29;20380;-81
2021/10/12 05:23:16;;;;;;;225.63;204.20;;;;;;;13.09;100.00;100745.00;4909701;29;20111;-79
2021/10/12 05:25:46;;;;;;;192.93;173.57;;;;;;;10.75;100.00;100746.56;4914414;29;20052;-77
2021/10/12 05:28:13;;;;;;;207.43;185.57;;;;;;;10.16;100.00;100734.88;4904753;29;20045;-82
2021/10/12 05:30:40;;;;;;;214.23;193.85;;;;;;;10.04;100.00;100742.63;4908754;29;20064;-79
2021/10/12 05:33:08;;;;;;;222.70;201.43;;;;;;;10.08;100.00;100743.88;4908656;29;20046;-76
2021/10/12 05:35:35;;;;;;;216.57;194.18;;;;;;;9.94;100.00;100744.84;4915205;29;20127;-79
2021/10/12 05:38:01;;;;;;;240.82;217.10;;;;;;;10.04;100.00;100747.09;4912914;29;20056;-78
2021/10/12 05:40:30;;;;;;;245.75;221.40;;;;;;;10.03;100.00;100751.59;4912740;29;20135;-76
2021/10/12 05:42:57;;;;;;;250.18;225.75;;;;;;;9.99;100.00;100747.72;4911920;29;20186;-76
2021/10/12 05:45:23;;;;;;;247.48;223.68;;;;;;;10.30;100.00;100741.88;4912883;29;20504;-77
2021/10/12 05:47:50;;;;;;;227.40;205.52;;;;;;;10.29;100.00;100745.56;4914518;29;20530;-78
2021/10/12 05:50:18;;;;;;;226.43;204.45;;;;;;;10.46;100.00;100739.84;4911836;29;20052;-76
2021/10/12 05:52:51;;;;;;;220.60;199.38;;;;;;;10.15;100.00;100743.06;4918871;29;20175;-79
2021/10/12 05:55:22;;;;;;;215.23;193.63;;;;;;;10.01;100.00;100736.91;4907702;29;20062;-78
2021/10/12 05:58:06;;;;;;;216.95;196.50;;;;;;;10.48;100.00;100741.25;4903445;29;20056;-78
2021/10/12 06:00:33;;;;;;;197.88;178.05;;;;;;;10.37;100.00;100735.75;4904799;29;20481;-77
2021/10/12 06:03:00;;;;;;;194.02;175.73;;;;;;;10.16;100.00;100726.09;4904117;29;20088;-78
2021/10/12 06:05:26;;;;;;;192.27;174.35;;;;;;;10.64;100.00;100731.25;4918205;29;20059;-78
2021/10/12 06:07:54;;;;;;;188.93;171.27;;;;;;;10.64;100.00;100729.41;4909615;29;20060;-82
2021/10/12 06:10:20;;;;;;;165.25;149.60;;;;;;;10.30;100.00;100733.91;4909075;29;20059;-77
2021/10/12 06:12:47;;;;;;;166.57;149.50;;;;;;;10.86;100.00;100742.44;4914378;29;20565;-82
2021/10/12 06:15:15;;;;;;;152.43;136.73;;;;;;;10.38;100.00;100738.22;4911784;29;20125;-79
2021/10/12 06:17:42;;;;;;;152.38;136.60;;;;;;;10.13;100.00;100739.78;4911726;29;20052;-77
2021/10/12 06:20:10;;;;;;;161.85;145.15;;;;;;;10.47;100.00;100741.47;4912376;29;20040;-77
2021/10/12 06:22:36;;;;;;;155.75;139.70;;;;;;;10.03;100.00;100750.78;4910853;29;20056;-79
2021/10/12 06:25:03;;;;;;;163.93;147.30;;;;;;;10.30;100.00;100743.72;4907213;29;20056;-77
2021/10/12 06:27:30;;;;;;;171.25;154.00;;;;;;;10.91;100.00;100747.97;4911499;29;20126;-79
2021/10/12 06:29:57;;;;;;;158.73;142.43;;;;;;;10.11;100.00;100745.31;4913122;29;20056;-79
2021/10/12 06:32:25;;;;;;;170.63;154.00;;;;;;;10.62;100.00;100751.88;4905479;29;20449;-78
2021/10/12 06:34:53;;;;;;;157.68;142.63;;;;;;;10.07;100.00;100762.63;4912958;29;20485;-77
2021/10/12 06:37:19;;;;;;;158.55;142.40;;;;;;;9.78;100.00;100751.34;4911708;29;20048;-79
2021/10/12 06:39:46;;;;;;;153.27;137.57;;;;;;;9.68;100.00;100748.22;4904667;29;20509;-77
2021/10/12 06:42:13;;;;;;;165.60;148.73;;;;;;;10.34;100.00;100757.41;4904858;29;20081;-79
2021/10/12 06:44:39;;;;;;;169.73;152.23;;;;;;;9.91;100.00;100752.41;4906373;29;20538;-77
2021/10/12 06:47:06;;;;;;;166.30;149.02;;;;;;;9.85;100.00;100741.56;4904154;29;20056;-77
2021/10/12 06:49:34;;;;;;;157.10;141.05;;;;;;;9.61;100.00;100745.56;4904626;29;20486;-79
2021/10/12 06:52:01;;;;;;;160.90;143.60;;;;;;;9.57;100.00;100754.13;4912825;29;20057;-79
2021/10/12 06:54:28;;;;;;;151.93;133.02;;;;;;;9.54;100.00;100749.22;4907878;29;20119;-77
2021/10/12 06:56:57;;;;;;;150.77;134.50;;;;;;;9.71;100.00;100747.03;4909435;29;20053;-79
2021/10/12 06:59:25;;;;;;;155.15;138.40;;;;;;;9.54;100.00;100750.03;4907023;29;20048;-78
2021/10/12 07:01:52;;;;;;;150.82;134.82;;;;;;;9.57;100.00;100754.13;4910309;29;20060;-77
2021/10/12 07:04:19;;;;;;;155.68;139.90;;;;;;;9.43;100.00;100747.94;4908620;29;20079;-79
2021/10/12 07:06:47;;;;;;;160.50;144.55;;;;;;;9.46;100.00;100762.63;4909537;29;20052;-78
2021/10/12 07:09:16;;;;;;;167.43;150.23;;;;;;;9.42;100.00;100756.91;4910067;29;20120;-78
2021/10/12 07:11:43;;;;;;;165.82;148.48;;;;;;;9.51;100.00;100761.03;4903681;29;20533;-77
2021/10/12 07:14:10;;;;;;;174.70;157.32;;;;;;;9.74;100.00;100765.19;4903743;29;20056;-81
2021/10/12 07:16:38;;;;;;;192.15;172.40;;;;;;;9.55;100.00;100761.47;4908952;29;20048;-79
2021/10/12 07:19:04;;;;;;;183.25;164.75;;;;;;;9.34;100.00;100763.19;4904493;29;20048;-79
2021/10/12 07:21:31;;;;;;;174.68;156.60;;;;;;;9.40;100.00;100764.25;4898575;29;20121;-79
2021/10/12 07:24:00;;;;;;;175.45;157.02;;;;;;;9.40;100.00;100762.41;4907585;29;20442;-77
2021/10/12 07:26:27;;;;;;;184.32;165.32;;;;;;;9.41;100.00;100765.91;4913713;29;20111;-79
2021/10/12 07:28:56;;;;;;;176.90;158.85;;;;;;;9.37;100.00;100768.09;4908757;29;20111;-77
2021/10/12 07:31:22;;;;;;;190.02;170.38;;;;;;;9.27;100.00;100769.50;4911814;29;20048;-76
2021/10/12 07:33:49;;;;;;;210.95;190.90;;;;;;;9.37;100.00;100765.44;4914506;29;20052;-77
2021/10/12 07:36:16;;;;;;;200.30;179.80;;;;;;;9.39;100.00;100763.44;4904299;29;20064;-77
2021/10/12 07:38:43;;;;;;;208.73;187.23;;;;;;;9.37;100.00;100756.69;4914741;29;20468;-76
2021/10/12 07:41:12;;;;;;;232.07;209.25;;;;;;;9.86;100.00;100759.13;4909665;29;20056;-79
2021/10/12 07:43:39;;;;;;;206.52;185.50;;;;;;;9.44;100.00;100768.16;4911095;29;20074;-77
2021/10/12 07:46:06;;;;;;;202.90;182.32;;;;;;;9.42;100.00;100758.75;4920664;29;20048;-77
2021/10/12 07:48:33;;;;;;;178.00;158.43;;;;;;;9.33;100.00;100758.09;4916038;29;20055;-77
2021/10/12 07:51:00;;;;;;;180.07;161.30;;;;;;;9.69;100.00;100749.88;4914607;29;20123;-77
2021/10/12 07:53:28;;;;;;;174.90;156.30;;;;;;;9.49;100.00;100741.84;4909595;29;20485;-78
2021/10/12 07:55:57;;;;;;;175.38;156.07;;;;;;;9.40;100.00;100741.19;4907603;29;20590;-79
2021/10/12 07:58:25;;;;;;;195.48;174.45;;;;;;;9.44;100.00;100741.66;4908144;29;20136;-79
2021/10/12 08:00:52;;;;;;;195.40;174.18;;;;;;;9.44;100.00;100730.19;4909727;29;20553;-77
2021/10/12 08:03:19;;;;;;;198.63;178.95;;;;;;;9.50;100.00;100722.28;4907915;29;20064;-77
2021/10/12 08:05:46;;;;;;;223.80;201.23;;;;;;;9.48;100.00;100726.97;4910925;29;20087;-77
2021/10/12 08:08:13;;;;;;;255.82;231.80;;;;;;;9.48;100.00;100719.00;4912091;29;20067;-77
2021/10/12 08:10:40;;;;;;;269.35;243.85;;;;;;;9.44;100.00;100724.91;4913044;29;20051;-77
2021/10/12 08:13:10;;;;;;;273.40;248.75;;;;;;;9.49;100.00;100718.00;4916271;29;20553;-77
2021/10/12 08:15:40;;;;;;;267.77;243.77;;;;;;;9.46;100.00;100715.72;4913575;29;20062;-79
2021/10/12 08:18:07;;;;;;;270.60;245.68;;;;;;;9.51;100.00;100715.16;4913723;29;20115;-77
2021/10/12 08:20:34;;;;;;;262.98;238.25;;;;;;;9.32;100.00;100709.56;4912012;29;20104;-77
2021/10/12 08:23:01;;;;;;;298.95;272.63;;;;;;;9.46;100.00;100706.97;4912857;29;20044;-77
2021/10/12 08:25:28;;;;;;;301.05;275.60;;;;;;;9.61;100.00;100710.28;4919676;29;20112;-77
2021/10/12 08:27:54;;;;;;;309.67;282.50;;;;;;;9.60;100.00;100703.34;4911345;29;20375;-79
2021/10/12 08:30:21;;;;;;;328.10;298.55;;;;;;;9.64;100.00;100707.22;4908732;29;20056;-79
2021/10/12 08:32:49;;;;;;;291.20;262.90;;;;;;;9.49;100.00;100710.03;4907681;29;20056;-77
2021/10/12 08:35:16;;;;;;;282.77;254.63;;;;;;;9.54;100.00;100709.44;4910080;29;20119;-77
2021/10/12 08:37:43;;;;;;;286.20;259.02;;;;;;;9.45;100.00;100708.81;4911766;29;20120;-77
2021/10/12 08:40:13;;;;;;;271.90;245.02;;;;;;;9.54;100.00;100709.44;4910214;29;20104;-79
2021/10/12 08:42:44;;;;;;;277.95;250.73;;;;;;;9.51;100.00;100712.50;4914809;29;20135;-77
2021/10/12 08:45:12;;;;;;;269.85;244.13;;;;;;;9.54;100.00;100712.91;4914748;29;20490;-79
2021/10/12 08:47:39;;;;;;;261.02;236.45;;;;;;;9.58;100.00;100711.50;4911430;29;20098;-77
2021/10/12 08:50:10;;;;;;;262.90;237.73;;;;;;;9.47;100.00;100703.28;4907403;29;20128;-79
2021/10/12 08:52:36;;;;;;;319.05;287.00;;;;;;;9.57;100.00;100707.22;4904783;29;20048;-77
2021/10/12 08:55:04;;;;;;;288.52;259.73;;;;;;;9.45;100.00;100706.16;4905085;29;20048;-77
2021/10/12 08:57:32;;;;;;;275.02;247.77;;;;;;;9.34;100.00;100701.41;4908165;29;20577;-80
2021/10/12 09:00:02;;;;;;;296.63;267.73;;;;;;;9.48;100.00;100705.75;4912768;29;20465;-77
2021/10/12 09:02:29;;;;;;;297.40;269.67;;;;;;;9.44;100.00;100703.69;4911507;29;20492;-78
2021/10/12 09:04:56;;;;;;;279.23;254.13;;;;;;;9.50;100.00;100713.50;4914514;29;20054;-77
2021/10/12 09:07:27;;;;;;;285.52;258.65;;;;;;;9.62;100.00;100718.06;4914581;29;20489;-79
2021/10/12 09:09:56;;;;;;;279.45;253.38;;;;;;;9.58;100.00;100716.78;4912783;29;20048;-79
2021/10/12 09:12:44;;;;;;;225.13;204.55;;;;;;;9.55;100.00;100708.44;4912599;29;20116;-76
2021/10/12 09:15:11;;;;;;;204.18;183.43;;;;;;;9.73;100.00;100716.63;4913019;29;20489;-79
2021/10/12 09:17:40;;;;;;;202.35;182.05;;;;;;;9.66;100.00;100715.00;4907192;29;20059;-77
2021/10/12 09:20:28;;;;;;;225.20;204.68;;;;;;;9.63;100.00;100711.72;4912790;29;20458;-80
2021/10/12 09:23:11;;;;;;;212.20;192.52;;;;;;;9.63;100.00;100719.69;4910984;29;20144;-78
2021/10/12 09:25:40;;;;;;;190.32;171.60;;;;;;;9.64;100.00;100718.66;4911003;29;20090;-78
2021/10/12 09:28:08;;;;;;;199.45;179.73;;;;;;;9.50;100.00;100719.63;4913461;29;20549;-79
2021/10/12 09:30:37;;;;;;;217.63;197.25;;;;;;;9.55;100.00;100713.72;4913279;29;20076;-76
2021/10/12 09:33:06;;;;;;;266.25;243.77;;;;;;;9.39;100.00;100714.91;4913927;29;20147;-78
2021/10/12 09:35:33;;;;;;;253.52;229.27;;;;;;;9.59;100.00;100707.00;4913356;29;20071;-78
2021/10/12 09:38:10;;;;;;;304.88;272.55;;;;;;;9.63;100.00;100709.06;4912325;29;20044;-78
2021/10/12 09:40:38;;;;;;;284.40;256.80;;;;;;;9.63;100.00;100706.41;4913420;29;20044;-76
2021/10/12 09:43:06;;;;;;;271.48;247.05;;;;;;;9.76;100.00;100699.50;4911205;29;20044;-78
2021/10/12 09:45:40;;;;;;;295.90;269.73;;;;;;;9.81;100.00;100697.09;4914427;29;20048;-78
2021/10/12 09:48:31;;;;;;;285.02;260.15;;;;;;;9.81;100.00;100689.94;4912623;29;20052;-78
2021/10/12 09:51:12;;;;;;;217.68;196.13;;;;;;;9.95;100.00;100688.09;4913106;29;20048;-78
2021/10/12 09:53:41;;;;;;;210.75;190.30;;;;;;;9.98;100.00;100686.88;4910080;29;20051;-76
2021/10/12 09:56:08;;;;;;;198.88;179.05;;;;;;;9.81;100.00;100681.97;4907211;29;20391;-79
2021/10/12 09:58:35;;;;;;;205.18;184.38;;;;;;;9.87;100.00;100683.00;4912977;29;20256;-79
2021/10/12 10:01:04;;;;;;;214.70;193.25;;;;;;;9.83;100.00;100681.75;4905942;29;20136;-77
2021/10/12 10:03:31;;;;;;;261.25;237.43;;;;;;;9.96;100.00;100678.34;4911780;29;20048;-79
2021/10/12 10:06:02;;;;;;;269.13;244.75;;;;;;;9.83;100.00;100677.28;4915694;29;20121;-77
2021/10/12 10:08:30;;;;;;;248.55;227.20;;;;;;;9.73;100.00;100679.50;4909966;29;20136;-79
2021/10/12 10:10:59;;;;;;;292.85;269.17;;;;;;;9.83;100.00;100666.69;4909936;29;20142;-79
2021/10/12 10:13:26;;;;;;;296.08;271.92;;;;;;;9.96;100.00;100665.88;4908371;29;20048;-78
2021/10/12 10:15:54;;;;;;;245.70;223.65;;;;;;;9.84;100.00;100663.00;4908592;29;20074;-77
2021/10/12 10:18:22;;;;;;;269.08;243.32;;;;;;;9.98;100.00;100663.81;4903786;29;20115;-79
2021/10/12 10:20:51;;;;;;;264.27;239.02;;;;;;;9.86;100.00;100660.97;4914042;29;20052;-77
2021/10/12 10:23:48;;;;;;;272.63;246.25;;;;;;;9.95;100.00;100658.91;4908386;29;20064;-77
2021/10/12 10:26:30;;;;;;;251.63;227.02;;;;;;;9.96;100.00;100649.97;4903175;29;20052;-77
2021/10/12 10:29:18;;;;;;;237.63;214.23;;;;;;;9.54;100.00;100648.47;4917458;29;20083;-78
2021/10/12 10:31:48;;;;;;;229.63;206.23;;;;;;;9.54;100.00;100646.63;4910874;29;20485;-76
2021/10/12 10:34:29;;;;;;;240.95;216.80;;;;;;;9.63;100.00;100645.41;4906649;29;20052;-77
2021/10/12 10:37:30;;;;;;;257.73;232.15;;;;;;;9.39;100.00;100649.44;4915357;29;20052;-77
2021/10/12 10:40:00;;;;;;;254.00;229.63;;;;;;;9.71;100.00;100643.59;4869792;29;20084;-78
2021/10/12 10:42:59;;;;;;;258.42;234.23;;;;;;;9.82;100.00;100643.00;4904693;29;20397;-76
2021/10/12 10:45:44;;;;;;;231.25;208.93;;;;;;;9.81;100.00;100638.72;4914994;29;20060;-77
2021/10/12 10:48:12;;;;;;;270.70;245.68;;;;;;;9.65;100.00;100634.59;4912386;29;20052;-79
2021/10/12 10:50:39;;;;;;;248.10;224.70;;;;;;;9.68;100.00;100636.84;4921983;29;20044;-80
2021/10/12 10:53:09;;;;;;;247.10;223.23;;;;;;;9.81;100.00;100636.88;4915687;29;20516;-77
2021/10/12 10:55:37;;;;;;;227.80;205.13;;;;;;;9.53;100.00;100639.69;4914390;29;20449;-79